Time;durP1;ratioP1;P1;durP2;ratioP2;P2;SDS_P1;SDS_P2;PMS_P1;PMS_P2;Temp;Humidity;BMP_temperature;BMP_pressure;BME280_temperature;BME280_humidity;BME280_pressure;Samples;Min_cycle;Max_cycle;Signal;HPM_P1;HPM_P2
2022/01/31 00:00:57;;;;;;;24.35;6.03;;;4.00;99.90;;;;;;4947798;28;20048;-49
2022/01/31 00:03:23;;;;;;;18.38;6.43;;;4.00;99.90;;;;;;4930705;28;20150;-48
2022/01/31 00:05:49;;;;;;;21.10;6.18;;;4.00;99.90;;;;;;4962654;28;20120;-46
2022/01/31 00:08:21;;;;;;;18.17;5.85;;;4.00;99.90;;;;;;5023458;28;20052;-48
2022/01/31 00:10:47;;;;;;;;;;;4.00;99.90;;;;;;5009817;28;20101;-48
2022/01/31 00:13:20;;;;;;;23.23;6.93;;;4.00;99.90;;;;;;4945053;28;20012;-47
2022/01/31 00:15:53;;;;;;;23.80;6.50;;;4.00;99.90;;;;;;4954230;28;20647;-61
2022/01/31 00:18:19;;;;;;;25.80;7.20;;;4.00;99.90;;;;;;5015868;28;20063;-62
2022/01/31 00:20:45;;;;;;;26.17;7.13;;;4.10;99.90;;;;;;5065408;28;20059;-62
2022/01/31 00:23:11;;;;;;;23.75;6.90;;;4.00;99.90;;;;;;5017591;28;20081;-61
2022/01/31 00:25:37;;;;;;;23.80;6.95;;;4.00;99.90;;;;;;4970510;28;20053;-62
2022/01/31 00:28:04;;;;;;;23.15;7.40;;;4.00;99.90;;;;;;4967257;28;20418;-62
2022/01/31 00:30:30;;;;;;;20.95;6.97;;;3.90;99.90;;;;;;4962426;28;20139;-62
2022/01/31 00:32:56;;;;;;;26.17;7.85;;;3.90;99.90;;;;;;4954861;28;20055;-48
2022/01/31 00:35:22;;;;;;;27.38;8.02;;;4.00;99.90;;;;;;4951471;28;20557;-47
2022/01/31 00:37:49;;;;;;;22.65;7.70;;;4.00;99.90;;;;;;4961395;28;20057;-46
2022/01/31 00:40:15;;;;;;;23.63;8.35;;;4.00;99.90;;;;;;4966418;28;20093;-48
2022/01/31 00:42:41;;;;;;;25.23;8.25;;;4.00;99.90;;;;;;4945445;28;20496;-48
2022/01/31 00:45:15;;;;;;;21.35;8.15;;;4.00;99.90;;;;;;4989442;28;20050;-53
2022/01/31 00:47:47;;;;;;;20.02;8.13;;;4.00;99.90;;;;;;4960644;28;20575;-62
2022/01/31 00:50:15;;;;;;;30.35;9.55;;;4.00;99.90;;;;;;4968974;28;20102;-47
2022/01/31 00:52:43;;;;;;;26.35;9.00;;;4.10;99.90;;;;;;4929123;28;20057;-47
2022/01/31 00:55:11;;;;;;;22.13;8.93;;;4.10;99.90;;;;;;4975344;28;20073;-62
2022/01/31 00:57:37;;;;;;;24.98;9.45;;;4.10;99.90;;;;;;4964541;28;20100;-62
2022/01/31 01:00:05;;;;;;;18.33;8.20;;;4.10;99.90;;;;;;5004860;28;20037;-48
2022/01/31 01:02:32;;;;;;;24.92;8.88;;;4.00;99.90;;;;;;4956190;28;20081;-62
2022/01/31 01:04:58;;;;;;;28.75;8.98;;;4.00;99.90;;;;;;4955054;28;20054;-62
2022/01/31 01:07:24;;;;;;;25.17;9.32;;;4.10;99.90;;;;;;4993495;28;20125;-62
2022/01/31 01:09:50;;;;;;;19.52;8.50;;;4.10;99.90;;;;;;4962360;28;20047;-48
2022/01/31 01:12:18;;;;;;;26.83;9.95;;;4.10;99.90;;;;;;5004226;28;20401;-62
2022/01/31 01:14:46;;;;;;;22.48;9.45;;;4.10;99.90;;;;;;4950636;28;20086;-62
2022/01/31 01:17:12;;;;;;;19.25;10.27;;;4.00;99.90;;;;;;4980806;28;20055;-50
2022/01/31 01:19:38;;;;;;;27.23;10.30;;;4.00;99.90;;;;;;4949356;28;20681;-49
2022/01/31 01:22:05;;;;;;;22.65;10.35;;;4.00;99.90;;;;;;4964522;28;20148;-48
2022/01/31 01:24:31;;;;;;;29.05;11.02;;;4.00;99.90;;;;;;4940993;28;20063;-48
2022/01/31 01:26:57;;;;;;;22.08;10.52;;;4.00;99.90;;;;;;4960540;28;20059;-63
2022/01/31 01:29:24;;;;;;;31.65;11.35;;;3.90;99.90;;;;;;4924490;28;20097;-62
2022/01/31 01:31:52;;;;;;;27.73;11.55;;;3.90;99.90;;;;;;4950477;28;20139;-61
2022/01/31 01:34:23;;;;;;;26.58;13.75;;;3.90;99.90;;;;;;4952599;28;20090;-61
2022/01/31 01:36:53;;;;;;;24.13;13.02;;;3.80;99.90;;;;;;4957385;28;20138;-62
2022/01/31 01:39:20;;;;;;;29.33;15.27;;;3.80;99.90;;;;;;4959166;28;20452;-61
2022/01/31 01:41:46;;;;;;;23.63;13.90;;;3.80;99.90;;;;;;4941773;28;20047;-61
2022/01/31 01:44:13;;;;;;;29.23;14.52;;;3.70;99.90;;;;;;4968202;28;20050;-60
2022/01/31 01:46:39;;;;;;;28.20;15.85;;;3.70;99.90;;;;;;4959814;28;20128;-50
2022/01/31 01:49:05;;;;;;;27.02;14.60;;;3.70;99.90;;;;;;4958240;28;20043;-61
2022/01/31 01:51:32;;;;;;;28.50;16.90;;;3.60;99.90;;;;;;4959711;28;20053;-60
2022/01/31 01:53:59;;;;;;;30.10;17.90;;;3.60;99.90;;;;;;4966159;28;20054;-61
2022/01/31 01:56:28;;;;;;;31.77;19.27;;;3.50;99.90;;;;;;4955772;28;20114;-60
2022/01/31 01:58:54;;;;;;;32.28;18.90;;;3.40;99.90;;;;;;4922885;29;20256;-61
2022/01/31 02:01:20;;;;;;;28.25;20.02;;;3.30;99.90;;;;;;4952044;28;20122;-48
2022/01/31 02:03:58;;;;;;;32.30;21.35;;;3.20;99.90;;;;;;4960942;28;20355;-48
2022/01/31 02:06:34;;;;;;;29.05;20.23;;;3.10;99.90;;;;;;4980696;28;20094;-49
2022/01/31 02:09:02;;;;;;;32.78;21.13;;;3.00;99.90;;;;;;4964453;28;20038;-61
2022/01/31 02:11:31;;;;;;;37.25;23.25;;;3.10;99.90;;;;;;4949186;28;20043;-51
2022/01/31 02:13:58;;;;;;;34.53;24.25;;;3.10;99.90;;;;;;5062312;28;20509;-47
2022/01/31 02:16:43;;;;;;;40.83;23.13;;;3.10;99.90;;;;;;5036354;28;20103;-50
2022/01/31 02:19:16;;;;;;;;;;;3.00;99.90;;;;;;4965178;28;20054;-50
2022/01/31 02:22:01;;;;;;;38.80;22.42;;;3.10;99.90;;;;;;4963450;28;20410;-50
2022/01/31 02:24:42;;;;;;;46.75;24.33;;;3.10;99.90;;;;;;4978903;28;20062;-47
2022/01/31 02:27:28;;;;;;;41.20;24.45;;;3.10;99.90;;;;;;4958953;28;20074;-49
2022/01/31 02:29:54;;;;;;;39.57;24.40;;;3.10;99.90;;;;;;4943255;28;20117;-49
2022/01/31 02:32:22;;;;;;;40.70;25.05;;;3.20;99.90;;;;;;4983851;28;20513;-48
2022/01/31 02:34:53;;;;;;;39.67;25.33;;;3.20;99.90;;;;;;4961089;28;20509;-60
2022/01/31 02:37:20;;;;;;;31.52;22.98;;;3.20;99.90;;;;;;4960188;28;20058;-61
2022/01/31 02:39:47;;;;;;;34.08;22.85;;;3.30;99.90;;;;;;4959679;28;20377;-61
2022/01/31 02:42:14;;;;;;;32.83;21.90;;;3.30;99.90;;;;;;4946991;28;20066;-60
2022/01/31 02:44:41;;;;;;;29.38;20.77;;;3.30;99.90;;;;;;4998405;28;20132;-60
2022/01/31 02:47:21;;;;;;;28.70;21.35;;;3.30;99.90;;;;;;4974129;28;20628;-60
2022/01/31 02:49:59;;;;;;;26.92;17.98;;;3.30;99.90;;;;;;4978036;28;20042;-60
2022/01/31 02:52:29;;;;;;;24.95;18.58;;;3.30;99.90;;;;;;4939902;28;20088;-61
2022/01/31 02:54:56;;;;;;;21.63;16.00;;;3.20;99.90;;;;;;4927611;28;20418;-61
2022/01/31 02:57:22;;;;;;;24.50;17.85;;;3.20;99.90;;;;;;4960011;28;20413;-60
2022/01/31 02:59:49;;;;;;;21.08;13.52;;;3.20;99.90;;;;;;4963975;28;20117;-62
2022/01/31 03:02:15;;;;;;;19.38;14.15;;;3.20;99.90;;;;;;4954251;28;20068;-61
2022/01/31 03:04:42;;;;;;;20.85;15.23;;;3.20;99.90;;;;;;4957988;28;20395;-61
2022/01/31 03:07:11;;;;;;;23.90;16.08;;;3.20;99.90;;;;;;4957388;28;20047;-61
2022/01/31 03:09:37;;;;;;;21.90;16.10;;;3.20;99.90;;;;;;4952156;28;20069;-61
2022/01/31 03:12:08;;;;;;;24.33;16.98;;;3.20;99.90;;;;;;4960482;28;20143;-61
2022/01/31 03:14:42;;;;;;;26.17;16.80;;;3.30;99.90;;;;;;4942919;28;20133;-61
2022/01/31 03:17:17;;;;;;;23.63;17.00;;;3.30;99.90;;;;;;4976849;28;20055;-61
2022/01/31 03:19:44;;;;;;;22.35;16.77;;;3.30;99.90;;;;;;4952771;28;20329;-61
2022/01/31 03:22:12;;;;;;;25.60;16.45;;;3.30;99.90;;;;;;4954181;28;20785;-61
2022/01/31 03:24:42;;;;;;;28.40;16.88;;;3.40;99.90;;;;;;4947400;28;20051;-61
2022/01/31 03:27:08;;;;;;;25.67;16.77;;;3.40;99.90;;;;;;4955249;28;20124;-64
2022/01/31 03:29:34;;;;;;;26.48;17.65;;;3.50;99.90;;;;;;4956273;28;20620;-62
2022/01/31 03:32:00;;;;;;;28.98;17.08;;;3.50;99.90;;;;;;4983062;28;20498;-63
2022/01/31 03:34:26;;;;;;;28.85;18.60;;;3.60;99.90;;;;;;4963411;28;20047;-62
2022/01/31 03:36:52;;;;;;;25.88;17.55;;;3.70;99.90;;;;;;4960505;28;20043;-61
2022/01/31 03:39:22;;;;;;;31.30;17.73;;;3.80;99.90;;;;;;4954054;28;20085;-62
2022/01/31 03:41:48;;;;;;;30.08;16.75;;;3.80;99.90;;;;;;4949126;28;20047;-62
2022/01/31 03:44:15;;;;;;;29.95;16.23;;;3.80;99.90;;;;;;4950321;28;20085;-63
2022/01/31 03:46:41;;;;;;;30.27;16.08;;;4.00;99.90;;;;;;5025268;28;20048;-63
2022/01/31 03:49:07;;;;;;;24.08;14.82;;;4.00;99.90;;;;;;4967701;28;20088;-51
2022/01/31 03:51:43;;;;;;;30.45;14.50;;;4.10;99.90;;;;;;4959514;28;20549;-49
2022/01/31 03:54:11;;;;;;;31.35;14.10;;;4.30;99.90;;;;;;4956320;28;20469;-48
2022/01/31 03:56:37;;;;;;;30.20;15.60;;;4.40;99.90;;;;;;4950946;28;20048;-47
2022/01/31 03:59:33;;;;;;;37.65;13.52;;;4.50;99.90;;;;;;4974247;28;20413;-47
2022/01/31 04:02:02;;;;;;;31.15;12.88;;;4.60;99.90;;;;;;4941894;29;20055;-49
2022/01/31 04:04:28;;;;;;;33.10;12.70;;;4.70;99.90;;;;;;4960275;28;20529;-49
2022/01/31 04:06:54;;;;;;;30.48;10.95;;;4.80;99.90;;;;;;4947122;28;20875;-46
2022/01/31 04:09:20;;;;;;;32.05;11.38;;;4.80;99.90;;;;;;4963638;28;20057;-46
2022/01/31 04:11:47;;;;;;;34.67;9.93;;;4.90;99.90;;;;;;4954368;28;20391;-48
2022/01/31 04:14:13;;;;;;;26.88;8.02;;;5.00;99.90;;;;;;4974333;28;20054;-47
2022/01/31 04:16:39;;;;;;;27.98;7.03;;;5.00;99.90;;;;;;4979006;28;20051;-48
2022/01/31 04:19:05;;;;;;;32.60;6.40;;;5.10;99.90;;;;;;4966279;28;20058;-47
2022/01/31 04:21:31;;;;;;;28.58;6.13;;;5.20;99.90;;;;;;4941461;28;20583;-48
2022/01/31 04:23:58;;;;;;;26.90;6.03;;;5.20;99.90;;;;;;4962317;28;20397;-48
2022/01/31 04:26:32;;;;;;;26.08;6.28;;;5.30;99.90;;;;;;4953134;28;20814;-49
2022/01/31 04:29:12;;;;;;;26.17;5.00;;;5.30;99.90;;;;;;4959629;28;20341;-48
2022/01/31 04:31:44;;;;;;;19.77;5.43;;;5.40;99.90;;;;;;4937109;28;20462;-48
2022/01/31 04:34:10;;;;;;;23.63;4.65;;;5.40;99.90;;;;;;4950472;28;20078;-47
2022/01/31 04:36:37;;;;;;;21.83;5.45;;;5.30;99.90;;;;;;4916094;28;20065;-49
2022/01/31 04:39:03;;;;;;;21.10;4.63;;;5.30;99.90;;;;;;4958711;28;20035;-48
2022/01/31 04:41:30;;;;;;;23.00;5.22;;;5.40;99.90;;;;;;4953411;28;20448;-48
2022/01/31 04:44:01;;;;;;;20.48;4.50;;;5.30;99.90;;;;;;4947823;28;20041;-48
2022/01/31 04:46:27;;;;;;;19.02;3.92;;;5.40;99.90;;;;;;4956054;28;20081;-48
2022/01/31 04:48:53;;;;;;;23.42;4.47;;;5.40;99.90;;;;;;4947877;28;20081;-51
2022/01/31 04:51:19;;;;;;;22.83;3.85;;;5.40;99.90;;;;;;4959367;28;20038;-47
2022/01/31 04:53:45;;;;;;;18.58;4.20;;;5.30;99.90;;;;;;4958899;28;20532;-47
2022/01/31 04:56:11;;;;;;;39.63;5.30;;;5.30;99.90;;;;;;4956370;28;20042;-49
2022/01/31 04:58:37;;;;;;;18.92;4.05;;;5.20;99.90;;;;;;4946489;28;20104;-48
2022/01/31 05:01:03;;;;;;;23.15;5.03;;;5.20;99.90;;;;;;4962836;28;20455;-48
2022/01/31 05:03:30;;;;;;;20.65;4.20;;;5.20;99.90;;;;;;4955554;28;20049;-63
2022/01/31 05:05:56;;;;;;;21.55;4.45;;;5.20;99.90;;;;;;4951938;28;20510;-48
2022/01/31 05:08:26;;;;;;;16.92;4.82;;;5.20;99.90;;;;;;4952695;28;20464;-63
2022/01/31 05:10:52;;;;;;;22.77;3.88;;;5.30;99.90;;;;;;4972009;28;20398;-63
2022/01/31 05:13:20;;;;;;;23.40;4.25;;;5.30;99.90;;;;;;4964685;28;20490;-63
2022/01/31 05:15:46;;;;;;;20.67;4.03;;;5.30;99.90;;;;;;4962807;28;20082;-63
2022/01/31 05:18:13;;;;;;;22.65;4.38;;;5.30;99.90;;;;;;4927054;28;20062;-64
2022/01/31 05:20:40;;;;;;;21.20;3.88;;;5.20;99.90;;;;;;5004425;28;20063;-48
2022/01/31 05:23:07;;;;;;;25.98;4.22;;;5.20;99.90;;;;;;4983593;28;20108;-63
2022/01/31 05:25:34;;;;;;;23.70;3.95;;;5.30;99.90;;;;;;4999678;28;20032;-49
2022/01/31 05:28:00;;;;;;;22.42;4.50;;;5.20;99.90;;;;;;4993390;28;20069;-63
2022/01/31 05:30:26;;;;;;;23.67;4.63;;;5.10;99.90;;;;;;4941123;28;20133;-47
2022/01/31 05:32:53;;;;;;;29.48;4.63;;;5.20;99.90;;;;;;4942857;28;20047;-48
2022/01/31 05:35:19;;;;;;;23.05;4.65;;;5.20;99.90;;;;;;4976907;28;20049;-63
2022/01/31 05:37:45;;;;;;;20.58;4.72;;;5.30;99.90;;;;;;4998499;28;20050;-64
2022/01/31 05:40:12;;;;;;;12.50;2.35;;;5.10;99.90;;;;;;4933557;28;20120;-47
2022/01/31 05:42:38;;;;;;;10.45;1.58;;;5.00;99.90;;;;;;4960778;28;20760;-48
2022/01/31 05:45:06;;;;;;;6.70;1.50;;;4.80;99.90;;;;;;4974364;28;20047;-49
2022/01/31 05:47:36;;;;;;;7.55;1.42;;;4.70;99.90;;;;;;5028414;28;20054;-47
2022/01/31 05:50:04;;;;;;;4.30;1.00;;;4.60;99.90;;;;;;4967530;28;20042;-47
2022/01/31 05:52:30;;;;;;;6.82;1.23;;;4.50;99.90;;;;;;4951861;28;20089;-62
2022/01/31 05:54:57;;;;;;;7.05;1.20;;;4.50;99.90;;;;;;4944387;28;20057;-63
2022/01/31 05:57:23;;;;;;;7.43;1.40;;;4.50;99.90;;;;;;4984484;28;20532;-63
2022/01/31 05:59:50;;;;;;;5.60;1.25;;;4.50;99.90;;;;;;4924362;28;20055;-48
2022/01/31 06:02:17;;;;;;;4.85;1.05;;;4.50;99.90;;;;;;4961878;28;20090;-63
2022/01/31 06:04:44;;;;;;;6.72;1.00;;;4.50;99.90;;;;;;4949417;28;20422;-63
2022/01/31 06:07:10;;;;;;;9.13;1.40;;;4.50;99.90;;;;;;4953434;28;20059;-49
2022/01/31 06:09:37;;;;;;;5.35;1.00;;;4.50;99.90;;;;;;4954132;28;20458;-63
2022/01/31 06:12:04;;;;;;;8.05;2.00;;;4.50;99.90;;;;;;4954440;28;20046;-63
2022/01/31 06:14:31;;;;;;;4.68;0.95;;;4.50;99.90;;;;;;4956805;28;20455;-63
2022/01/31 06:16:58;;;;;;;11.00;1.65;;;4.50;99.90;;;;;;4991818;28;20071;-63
2022/01/31 06:19:24;;;;;;;10.85;1.80;;;4.50;99.90;;;;;;4958097;28;20123;-47
2022/01/31 06:21:50;;;;;;;9.77;2.05;;;4.50;99.90;;;;;;4954852;28;20039;-48
2022/01/31 06:24:16;;;;;;;9.57;1.70;;;4.50;99.90;;;;;;4958822;28;20057;-48
2022/01/31 06:26:43;;;;;;;10.63;2.17;;;4.50;99.90;;;;;;4969315;28;20067;-62
2022/01/31 06:29:20;;;;;;;8.48;1.92;;;4.50;99.90;;;;;;4974559;28;20043;-63
2022/01/31 06:31:47;;;;;;;16.70;2.28;;;4.50;99.90;;;;;;4966662;28;20052;-63
2022/01/31 06:34:13;;;;;;;15.23;3.10;;;4.60;99.90;;;;;;4978847;28;20046;-63
2022/01/31 06:36:39;;;;;;;12.52;2.58;;;4.60;99.90;;;;;;4957719;28;20043;-63
2022/01/31 06:39:05;;;;;;;14.18;2.58;;;4.60;99.90;;;;;;4990734;28;20096;-63
2022/01/31 06:41:31;;;;;;;17.58;3.47;;;4.70;99.90;;;;;;4998307;28;20056;-63
2022/01/31 06:43:57;;;;;;;20.58;2.88;;;4.80;99.90;;;;;;4967594;28;20086;-46
2022/01/31 06:46:23;;;;;;;13.95;2.20;;;4.80;99.90;;;;;;4958257;28;20051;-60
2022/01/31 06:48:49;;;;;;;16.10;1.98;;;4.80;99.90;;;;;;4980456;28;20134;-62
2022/01/31 06:51:15;;;;;;;16.75;2.83;;;4.80;99.90;;;;;;4986512;28;20436;-63
2022/01/31 06:53:42;;;;;;;17.80;3.17;;;4.90;99.90;;;;;;4969361;28;20490;-63
2022/01/31 06:56:08;;;;;;;15.88;3.13;;;4.90;99.90;;;;;;4978005;28;20054;-46
2022/01/31 06:58:34;;;;;;;22.90;3.13;;;4.90;99.90;;;;;;4965962;28;20096;-48
2022/01/31 07:01:00;;;;;;;25.23;3.60;;;4.90;99.90;;;;;;4966544;28;20090;-63
2022/01/31 07:03:26;;;;;;;21.85;4.38;;;4.90;99.90;;;;;;4966113;28;20050;-63
2022/01/31 07:05:53;;;;;;;22.85;3.55;;;4.90;99.90;;;;;;4977536;28;20045;-62
2022/01/31 07:08:19;;;;;;;21.38;3.95;;;4.90;99.90;;;;;;4950829;28;20058;-62
2022/01/31 07:10:50;;;;;;;18.25;3.17;;;4.90;99.90;;;;;;4982567;28;20061;-62
2022/01/31 07:14:01;;;;;;;16.13;2.80;;;5.00;99.90;;;;;;4957975;28;20042;-63
2022/01/31 07:16:10;;;;;;;14.73;2.65;;;5.00;99.90;;;;;;4983132;28;20122;-63
2022/01/31 07:18:37;;;;;;;15.82;2.50;;;5.00;99.90;;;;;;4974867;28;20449;-63
2022/01/31 07:21:04;;;;;;;10.57;2.10;;;5.00;99.90;;;;;;5006515;28;20592;-47
2022/01/31 07:23:50;;;;;;;10.77;1.85;;;4.90;99.90;;;;;;4963936;28;20086;-50
2022/01/31 07:26:17;;;;;;;8.85;2.30;;;4.90;99.90;;;;;;4994147;28;20067;-47
2022/01/31 07:28:43;;;;;;;13.35;1.92;;;4.90;99.90;;;;;;4965564;28;20444;-48
2022/01/31 07:31:13;;;;;;;9.80;2.28;;;4.90;99.90;;;;;;5011355;28;20606;-50
2022/01/31 07:33:41;;;;;;;6.13;1.50;;;4.90;99.90;;;;;;5010008;28;20492;-50
2022/01/31 07:36:07;;;;;;;9.23;2.10;;;4.80;99.90;;;;;;4971773;28;20055;-47
2022/01/31 07:38:34;;;;;;;7.78;1.55;;;4.80;99.90;;;;;;5008613;28;20499;-49
2022/01/31 07:41:00;;;;;;;6.88;1.48;;;4.80;99.90;;;;;;4956430;28;20529;-44
2022/01/31 07:43:27;;;;;;;11.23;1.77;;;4.80;99.90;;;;;;4961211;28;20043;-47
2022/01/31 07:45:53;;;;;;;8.70;1.50;;;4.70;99.90;;;;;;4966990;28;20105;-45
2022/01/31 07:48:19;;;;;;;7.75;2.22;;;4.80;99.90;;;;;;4967151;28;20046;-46
2022/01/31 07:50:46;;;;;;;11.27;2.10;;;4.80;99.90;;;;;;5048385;28;20052;-47
2022/01/31 07:53:12;;;;;;;9.00;2.15;;;4.80;99.90;;;;;;4965257;28;20042;-51
2022/01/31 07:55:38;;;;;;;13.27;2.28;;;4.80;99.90;;;;;;4981325;28;20061;-44
2022/01/31 07:58:06;;;;;;;14.35;2.55;;;4.80;99.90;;;;;;4962858;28;20043;-47
2022/01/31 08:00:32;;;;;;;17.98;2.20;;;4.80;99.90;;;;;;4972879;28;20047;-48
2022/01/31 08:02:59;;;;;;;15.85;2.17;;;4.80;99.90;;;;;;4969477;28;20521;-47
2022/01/31 08:05:25;;;;;;;13.68;2.50;;;4.80;99.90;;;;;;4972378;28;20059;-46
2022/01/31 08:07:51;;;;;;;12.25;2.38;;;4.90;99.90;;;;;;4955262;28;20055;-46
2022/01/31 08:10:17;;;;;;;11.60;2.30;;;4.90;99.90;;;;;;4957309;28;20164;-49
2022/01/31 08:12:44;;;;;;;19.75;2.88;;;4.90;99.90;;;;;;4990696;28;20039;-46
2022/01/31 08:15:19;;;;;;;21.65;3.88;;;5.00;99.90;;;;;;4975472;28;20405;-48
2022/01/31 08:17:45;;;;;;;18.40;2.97;;;5.00;99.90;;;;;;4951161;28;20051;-49
2022/01/31 08:20:12;;;;;;;15.30;2.75;;;5.10;99.90;;;;;;4958008;28;20625;-51
2022/01/31 08:22:38;;;;;;;17.15;3.35;;;5.10;99.90;;;;;;4966309;28;20055;-46
2022/01/31 08:25:05;;;;;;;13.02;2.65;;;5.10;99.90;;;;;;4991307;28;20051;-46
2022/01/31 08:27:32;;;;;;;11.38;2.67;;;5.20;99.90;;;;;;5019776;28;20500;-47
2022/01/31 08:30:07;;;;;;;15.05;2.88;;;5.20;99.90;;;;;;4958430;28;20082;-47
2022/01/31 08:32:43;;;;;;;15.85;3.08;;;5.30;99.90;;;;;;4988978;28;20047;-49
2022/01/31 08:37:54;;;;;;;17.30;3.63;;;5.40;99.90;;;;;;5032104;28;20511;-48
2022/01/31 08:40:21;;;;;;;19.70;3.83;;;5.40;99.90;;;;;;4954846;28;20055;-46
2022/01/31 08:42:47;;;;;;;18.52;3.55;;;5.50;99.90;;;;;;4967009;28;20046;-48
2022/01/31 08:45:13;;;;;;;16.35;3.40;;;5.50;99.90;;;;;;5008938;28;20057;-49
2022/01/31 08:47:41;;;;;;;20.17;3.45;;;5.60;99.90;;;;;;5006358;28;20754;-48
2022/01/31 08:50:11;;;;;;;19.17;3.90;;;5.60;99.90;;;;;;4996996;28;20046;-48
2022/01/31 08:52:37;;;;;;;20.02;4.15;;;5.70;99.90;;;;;;4974706;28;20548;-47
2022/01/31 08:55:03;;;;;;;22.38;5.22;;;5.70;99.90;;;;;;4971907;28;20772;-46
2022/01/31 08:57:30;;;;;;;23.55;4.45;;;5.70;99.90;;;;;;4965893;28;20055;-46
2022/01/31 08:59:56;;;;;;;27.05;5.35;;;5.80;99.90;;;;;;4990487;28;20054;-47
2022/01/31 09:02:36;;;;;;;21.70;3.70;;;5.80;99.90;;;;;;4956520;28;20525;-48
2022/01/31 09:05:03;;;;;;;17.20;3.55;;;5.90;99.90;;;;;;4961194;28;20505;-45
2022/01/31 09:07:30;;;;;;;26.02;3.85;;;5.90;99.90;;;;;;5006880;28;20431;-47
2022/01/31 09:09:59;;;;;;;19.52;3.33;;;6.00;99.90;;;;;;4956505;28;20043;-49
2022/01/31 09:12:29;;;;;;;15.43;3.55;;;6.50;99.90;;;;;;4961900;28;20494;-46
2022/01/31 09:14:56;;;;;;;15.30;3.17;;;6.80;99.90;;;;;;4963614;28;20050;-62
2022/01/31 09:17:22;;;;;;;12.75;2.60;;;6.80;99.90;;;;;;4970975;28;20433;-62
2022/01/31 09:19:48;;;;;;;12.65;2.63;;;6.70;99.90;;;;;;4967104;28;20086;-47
2022/01/31 09:22:15;;;;;;;17.00;2.92;;;6.60;99.90;;;;;;4984484;28;20489;-47
2022/01/31 09:24:41;;;;;;;10.95;2.38;;;6.70;99.90;;;;;;4978074;28;20563;-49
2022/01/31 09:27:10;;;;;;;9.70;2.10;;;6.70;99.90;;;;;;4985278;28;20230;-61
2022/01/31 09:29:38;;;;;;;13.50;2.30;;;6.70;99.90;;;;;;4969834;28;20046;-61
2022/01/31 09:32:05;;;;;;;10.10;2.10;;;6.70;99.90;;;;;;4973952;28;20051;-61
2022/01/31 09:34:32;;;;;;;11.35;2.10;;;6.70;99.90;;;;;;4993637;28;20468;-45
2022/01/31 09:37:02;;;;;;;10.95;2.40;;;6.80;99.90;;;;;;5033114;28;20042;-46
2022/01/31 09:39:30;;;;;;;12.63;2.20;;;6.80;99.90;;;;;;4962413;28;20745;-61
2022/01/31 09:41:57;;;;;;;7.60;1.75;;;6.90;99.90;;;;;;4960920;28;20053;-62
2022/01/31 09:49:22;;;;;;;13.23;3.05;;;6.90;99.90;;;;;;4978459;28;20143;-61
2022/01/31 09:51:49;;;;;;;20.48;7.85;;;7.10;99.90;;;;;;5016376;28;20080;-61
2022/01/31 09:54:15;;;;;;;11.80;2.13;;;7.50;99.90;;;;;;5037784;28;20056;-61
2022/01/31 09:56:46;;;;;;;10.32;2.13;;;7.50;99.90;;;;;;4993972;28;20055;-61
2022/01/31 09:59:14;;;;;;;18.00;8.50;;;7.40;99.90;;;;;;4993684;28;20386;-61
2022/01/31 10:01:52;;;;;;;11.38;2.45;;;7.40;99.90;;;;;;4990412;28;20179;-61
2022/01/31 10:04:21;;;;;;;12.52;2.88;;;7.50;99.90;;;;;;5036815;28;20385;-61
2022/01/31 10:06:52;;;;;;;9.50;2.08;;;7.70;99.90;;;;;;4968243;28;20149;-61
2022/01/31 10:09:25;;;;;;;15.02;3.05;;;7.70;99.90;;;;;;4959005;28;20039;-62
2022/01/31 10:16:25;;;;;;;11.13;2.13;;;7.60;99.90;;;;;;4959052;28;20049;-61
2022/01/31 10:17:43;;;;;;;9.77;2.15;;;7.40;99.90;;;;;;4962211;28;20053;-47
2022/01/31 10:20:18;;;;;;;20.15;4.20;;;7.30;99.90;;;;;;4958823;28;20126;-46
2022/01/31 10:22:46;;;;;;;11.88;2.72;;;7.30;99.90;;;;;;4960059;28;20055;-46
2022/01/31 10:25:17;;;;;;;8.73;2.20;;;7.30;99.90;;;;;;4997377;28;20044;-46
2022/01/31 10:27:51;;;;;;;11.23;1.88;;;7.30;99.90;;;;;;5054528;28;20059;-47
2022/01/31 10:30:22;;;;;;;11.52;2.35;;;7.20;99.90;;;;;;4975787;28;20117;-44
2022/01/31 10:32:49;;;;;;;;;;;7.60;99.90;;;;;;4977436;28;20051;-46
2022/01/31 10:35:18;;;;;;;8.65;1.73;;;8.00;99.90;;;;;;4969988;28;19922;-45
2022/01/31 10:37:46;;;;;;;8.75;1.98;;;8.90;99.90;;;;;;5044460;28;20051;-48
2022/01/31 10:54:03;;;;;;;12.02;1.73;;;8.90;99.90;;;;;;4966394;28;20049;-49
2022/01/31 10:56:49;;;;;;;8.20;1.73;;;9.40;99.90;;;;;;4959105;28;20057;-45
2022/01/31 10:59:16;;;;;;;11.68;2.70;;;10.40;99.90;;;;;;4962912;28;20051;-48
2022/01/31 11:01:46;;;;;;;10.85;1.67;;;11.30;99.90;;;;;;5060930;28;20045;-49
2022/01/31 11:04:16;;;;;;;9.02;1.75;;;11.50;99.90;;;;;;5053475;28;20039;-62
2022/01/31 11:06:45;;;;;;;10.30;2.85;;;12.00;99.90;;;;;;4967700;28;20054;-61
2022/01/31 11:09:18;;;;;;;8.02;1.75;;;11.90;99.90;;;;;;4961194;28;20185;-62
2022/01/31 11:11:47;;;;;;;7.22;1.50;;;12.70;99.90;;;;;;4961710;28;20059;-62
2022/01/31 11:14:14;;;;;;;9.63;1.75;;;12.80;99.90;;;;;;4988446;28;20039;-60
2022/01/31 11:16:46;;;;;;;9.45;2.03;;;13.00;99.90;;;;;;4995087;28;20422;-61
2022/01/31 11:19:13;;;;;;;;;;;13.00;99.90;;;;;;4951718;28;20046;-63
2022/01/31 11:21:44;;;;;;;9.18;2.10;;;13.70;99.90;;;;;;4952275;28;19984;-61
2022/01/31 11:24:22;;;;;;;12.63;2.65;;;14.10;99.90;;;;;;4958673;28;20444;-61
2022/01/31 11:26:51;;;;;;;9.82;2.28;;;14.30;99.90;;;;;;4961838;28;20165;-61
2022/01/31 11:29:18;;;;;;;5.88;1.60;;;13.60;99.90;;;;;;4973394;28;20047;-61
2022/01/31 11:31:45;;;;;;;11.60;2.70;;;13.70;99.90;;;;;;4949941;28;20133;-61
2022/01/31 11:34:12;;;;;;;14.75;2.60;;;14.00;99.90;;;;;;4959235;28;20081;-62
2022/01/31 11:36:40;;;;;;;12.70;2.85;;;14.00;99.90;;;;;;4974621;28;20060;-61
2022/01/31 11:39:11;;;;;;;11.73;2.65;;;14.10;99.90;;;;;;4984416;28;20047;-61
2022/01/31 11:41:45;;;;;;;11.88;2.75;;;14.50;99.90;;;;;;5000660;28;20062;-61
2022/01/31 11:44:50;;;;;;;18.75;5.95;;;14.80;99.90;;;;;;4945081;28;20050;-60
2022/01/31 11:47:22;;;;;;;15.68;6.57;;;14.60;99.90;;;;;;4954066;28;20122;-61
2022/01/31 11:49:52;;;;;;;12.43;2.63;;;13.70;99.90;;;;;;4966878;28;20043;-61
2022/01/31 11:52:20;;;;;;;13.77;2.80;;;13.30;99.90;;;;;;4953848;28;20131;-61
2022/01/31 11:54:56;;;;;;;11.52;3.10;;;13.80;99.90;;;;;;4961308;28;20573;-61
2022/01/31 11:57:25;;;;;;;12.65;2.40;;;13.30;99.90;;;;;;4935397;28;20059;-61
2022/01/31 11:59:57;;;;;;;11.98;2.97;;;13.50;99.90;;;;;;4972602;28;20058;-60
2022/01/31 12:02:24;;;;;;;11.77;3.05;;;13.40;99.90;;;;;;4995183;28;20043;-62
2022/01/31 12:04:52;;;;;;;13.45;2.75;;;13.50;99.90;;;;;;5017119;28;20552;-61
2022/01/31 12:07:39;;;;;;;15.55;2.90;;;13.40;99.90;;;;;;4966828;28;20086;-61
2022/01/31 12:10:31;;;;;;;16.17;4.88;;;13.80;99.90;;;;;;4954007;28;20142;-61
2022/01/31 12:13:02;;;;;;;;;;;14.30;99.90;;;;;;4971267;28;20099;-61
2022/01/31 12:24:02;;;;;;;13.13;4.70;;;12.80;99.90;;;;;;4995990;28;20046;-61
2022/01/31 12:26:28;;;;;;;11.85;3.00;;;12.10;99.90;;;;;;4982362;28;20071;-61
2022/01/31 12:28:59;;;;;;;12.48;2.97;;;11.70;99.90;;;;;;4975755;28;20082;-61
2022/01/31 12:31:34;;;;;;;12.55;3.40;;;11.40;99.90;;;;;;4992433;28;20594;-61
2022/01/31 12:34:17;;;;;;;13.50;2.55;;;11.20;99.90;;;;;;4992886;28;20052;-61
2022/01/31 12:36:43;;;;;;;11.48;2.70;;;10.90;99.90;;;;;;5004189;28;20047;-60
2022/01/31 12:39:28;;;;;;;9.38;2.13;;;10.90;99.90;;;;;;4988119;28;20058;-60
2022/01/31 12:42:00;;;;;;;10.85;2.42;;;10.50;99.90;;;;;;4955484;28;20508;-60
2022/01/31 12:44:32;;;;;;;12.35;2.85;;;10.40;99.90;;;;;;4976061;28;20058;-60
2022/01/31 12:47:08;;;;;;;;;;;10.20;99.90;;;;;;4994719;28;20055;-60
2022/01/31 12:49:35;;;;;;;12.18;2.95;;;10.00;99.90;;;;;;4993752;28;19925;-60
2022/01/31 12:52:07;;;;;;;10.52;1.80;;;9.80;99.90;;;;;;4984732;28;20050;-58
2022/01/31 12:54:38;;;;;;;11.48;2.88;;;9.70;99.90;;;;;;4980358;28;20112;-60
2022/01/31 12:57:11;;;;;;;13.52;2.95;;;9.70;99.90;;;;;;4972190;28;20513;-60
2022/01/31 12:59:39;;;;;;;10.05;2.53;;;9.60;99.90;;;;;;5030128;28;20042;-60
2022/01/31 13:02:08;;;;;;;12.45;2.28;;;9.50;99.90;;;;;;5043383;28;20047;-59
2022/01/31 13:04:35;;;;;;;12.30;3.20;;;9.50;99.90;;;;;;5020327;28;20114;-60
2022/01/31 13:07:05;;;;;;;20.80;8.68;;;9.40;99.90;;;;;;4961593;28;20123;-60
2022/01/31 13:09:38;;;;;;;16.90;3.88;;;9.30;99.90;;;;;;4962888;28;20035;-61
2022/01/31 13:12:11;;;;;;;12.73;2.78;;;9.30;99.90;;;;;;4961838;28;20043;-61
2022/01/31 13:14:49;;;;;;;12.98;2.60;;;9.40;99.90;;;;;;5011530;28;20047;-61
2022/01/31 13:17:21;;;;;;;18.10;8.45;;;9.30;99.90;;;;;;4955768;28;20053;-61
2022/01/31 13:19:53;;;;;;;11.60;3.80;;;9.20;99.90;;;;;;4952456;28;20554;-61
2022/01/31 13:22:30;;;;;;;14.25;3.75;;;9.30;99.90;;;;;;4951608;28;20047;-61
2022/01/31 13:25:03;;;;;;;18.48;5.75;;;9.10;99.90;;;;;;4963175;28;20406;-60
2022/01/31 13:27:30;;;;;;;26.88;10.43;;;9.00;99.90;;;;;;4972693;28;20108;-60